Time;durP1;ratioP1;P1;durP2;ratioP2;P2;SDS_P1;SDS_P2;PMS_P1;PMS_P2;Temp;Humidity;BMP_temperature;BMP_pressure;BME280_temperature;BME280_humidity;BME280_pressure;Samples;Min_cycle;Max_cycle;Signal;HPM_P1;HPM_P2
2023/03/24 00:01:23;;;;;;;15.00;13.40;;;;;;;14.00;57.52;97367.80;109588;1289;22188;-81
2023/03/24 00:03:51;;;;;;;14.80;12.10;;;;;;;13.99;57.48;97370.47;109619;1289;22203;-81
2023/03/24 00:06:21;;;;;;;16.70;12.80;;;;;;;13.99;57.73;97365.96;109634;1276;22127;-81
2023/03/24 00:08:49;;;;;;;15.70;12.90;;;;;;;13.99;57.52;97369.61;109654;1289;23359;-81
2023/03/24 00:11:19;;;;;;;16.90;13.20;;;;;;;13.98;57.81;97367.04;109630;1289;22201;-82
2023/03/24 00:13:48;;;;;;;17.40;12.90;;;;;;;13.97;57.85;97365.83;109662;1289;22372;-82
2023/03/24 00:16:18;;;;;;;17.80;12.90;;;;;;;13.95;57.78;97365.24;109643;1289;22388;-83
2023/03/24 00:18:51;;;;;;;19.00;11.70;;;;;;;13.94;58.02;97364.27;109493;1289;200508;-81
2023/03/24 00:21:23;;;;;;;23.60;12.50;;;;;;;13.93;58.15;97360.04;109648;1289;22153;-82
2023/03/24 00:23:54;;;;;;;15.80;11.50;;;;;;;13.91;58.04;97357.50;109658;1289;22317;-82
2023/03/24 00:26:23;;;;;;;15.80;11.40;;;;;;;13.91;58.31;97354.86;109673;1289;22231;-82
2023/03/24 00:28:53;;;;;;;14.70;11.10;;;;;;;13.90;58.42;97355.67;109596;1289;22194;-83
2023/03/24 00:31:23;;;;;;;15.70;11.20;;;;;;;13.89;58.34;97358.28;109642;1289;22367;-82
2023/03/24 00:33:52;;;;;;;13.90;11.60;;;;;;;13.89;58.44;97359.52;109648;1289;22224;-82
2023/03/24 00:36:23;;;;;;;14.40;11.50;;;;;;;13.88;58.51;97350.98;109613;1289;22246;-82
2023/03/24 00:38:52;;;;;;;16.60;11.90;;;;;;;13.88;58.74;97352.74;109584;1289;22284;-83
2023/03/24 00:41:25;;;;;;;13.60;11.10;;;;;;;13.87;58.76;97349.77;109623;1289;22877;-82
2023/03/24 00:43:57;;;;;;;18.30;11.90;;;;;;;13.86;58.89;97346.41;109646;1289;22241;-82
2023/03/24 00:46:26;;;;;;;14.50;11.40;;;;;;;13.85;58.83;97342.36;109603;1289;22231;-83
2023/03/24 00:49:05;;;;;;;17.30;11.20;;;;;;;13.85;58.75;97339.49;109578;1289;22219;-83
2023/03/24 00:51:36;;;;;;;12.70;10.50;;;;;;;13.84;58.95;97335.52;109643;1289;22192;-82
2023/03/24 00:54:08;;;;;;;13.60;11.20;;;;;;;13.83;59.09;97337.89;109648;1289;22795;-82
2023/03/24 00:56:39;;;;;;;15.20;10.80;;;;;;;13.82;58.97;97333.42;109639;1289;22217;-82
2023/03/24 00:59:08;;;;;;;13.40;10.50;;;;;;;13.80;59.13;97331.52;109622;1289;22313;-82
2023/03/24 01:01:38;;;;;;;17.70;10.70;;;;;;;13.80;59.30;97328.81;109599;1289;22125;-81
2023/03/24 01:04:09;;;;;;;14.20;11.00;;;;;;;13.79;59.29;97324.42;109636;1289;22332;-82
2023/03/24 01:06:38;;;;;;;14.00;11.20;;;;;;;13.78;59.45;97323.09;109606;1289;22342;-82
2023/03/24 01:09:07;;;;;;;15.10;11.70;;;;;;;13.77;59.37;97321.35;109628;1289;22233;-81
2023/03/24 01:11:40;;;;;;;19.20;11.50;;;;;;;13.76;59.57;97319.07;109580;1289;22209;-81
2023/03/24 01:14:10;;;;;;;16.00;13.90;;;;;;;13.74;59.47;97317.14;109633;1289;22889;-81
2023/03/24 01:16:38;;;;;;;15.30;13.40;;;;;;;13.73;59.55;97314.17;109626;1289;22199;-81
2023/03/24 01:19:08;;;;;;;17.40;14.10;;;;;;;13.72;59.69;97318.39;109635;1289;22198;-81
2023/03/24 01:21:37;;;;;;;17.60;14.30;;;;;;;13.72;59.73;97317.20;109560;1289;22407;-83
2023/03/24 01:24:06;;;;;;;16.50;12.90;;;;;;;13.71;59.62;97313.77;109617;1289;23129;-80
2023/03/24 01:26:34;;;;;;;19.40;13.10;;;;;;;13.70;59.57;97311.98;109635;1289;22118;-80
2023/03/24 01:29:02;;;;;;;16.70;13.80;;;;;;;13.69;59.67;97307.45;109619;1289;22412;-81
2023/03/24 01:31:31;;;;;;;17.30;13.60;;;;;;;13.68;59.57;97303.21;109641;1289;23430;-81
2023/03/24 01:33:59;;;;;;;23.20;12.90;;;;;;;13.66;59.63;97303.24;109618;1289;22214;-80
2023/03/24 01:36:27;;;;;;;15.10;11.90;;;;;;;13.65;59.67;97301.98;109605;1289;22238;-81
2023/03/24 01:38:57;;;;;;;16.90;11.30;;;;;;;13.64;59.83;97302.10;109630;1289;22160;-81
2023/03/24 01:41:29;;;;;;;15.00;10.70;;;;;;;13.64;59.77;97300.08;109623;1289;22322;-80
2023/03/24 01:43:58;;;;;;;14.30;11.40;;;;;;;13.62;59.81;97298.18;109611;1289;22175;-80
2023/03/24 01:46:28;;;;;;;14.80;11.60;;;;;;;13.62;60.03;97293.59;109619;1289;23123;-81
2023/03/24 01:49:04;;;;;;;15.10;12.00;;;;;;;13.62;59.98;97294.14;109631;1289;22911;-81
2023/03/24 01:51:41;;;;;;;17.60;13.20;;;;;;;13.62;59.97;97294.74;109614;1289;22247;-82
2023/03/24 01:54:17;;;;;;;13.50;12.10;;;;;;;13.61;60.07;97291.15;109636;1289;22129;-81
2023/03/24 01:56:56;;;;;;;18.20;13.10;;;;;;;13.60;60.16;97294.31;109680;1289;22564;-80
2023/03/24 01:59:30;;;;;;;18.60;12.80;;;;;;;13.60;59.99;97293.14;109846;1289;22326;-80
2023/03/24 02:02:34;;;;;;;17.80;13.40;;;;;;;13.59;60.13;97296.17;109559;1289;22237;-80
2023/03/24 02:05:07;;;;;;;18.60;14.10;;;;;;;13.58;60.08;97295.10;109674;1289;22247;-81
2023/03/24 02:07:54;;;;;;;15.80;14.20;;;;;;;13.58;60.04;97293.06;109615;1289;22571;-81
2023/03/24 02:10:23;;;;;;;19.80;14.60;;;;;;;13.58;60.31;97294.30;109641;1289;22148;-81
2023/03/24 02:12:52;;;;;;;18.70;15.30;;;;;;;13.58;60.33;97292.90;109653;1289;22174;-80
2023/03/24 02:15:21;;;;;;;16.20;14.60;;;;;;;13.56;60.26;97292.09;109661;1289;22260;-81
2023/03/24 02:17:59;;;;;;;15.80;13.30;;;;;;;13.56;60.25;97289.81;109591;1289;22215;-81
2023/03/24 02:20:52;;;;;;;19.00;13.60;;;;;;;13.55;60.33;97290.88;109639;1289;22252;-81
2023/03/24 02:23:54;;;;;;;25.40;13.00;;;;;;;13.54;60.13;97286.28;109620;1289;22258;-81
2023/03/24 02:27:19;;;;;;;14.00;12.20;;;;;;;13.54;60.36;97283.79;109608;1289;22191;-81
2023/03/24 02:30:00;;;;;;;18.60;13.00;;;;;;;13.52;60.33;97282.86;109003;1295;22228;-80
2023/03/24 02:32:35;;;;;;;17.30;12.60;;;;;;;13.49;60.47;97278.91;108983;1295;23034;-81
2023/03/24 02:35:11;;;;;;;14.70;13.20;;;;;;;13.48;60.49;97280.41;109013;1295;22672;-81
2023/03/24 02:38:18;;;;;;;19.80;14.50;;;;;;;13.47;60.48;97279.51;108995;1295;22309;-81
2023/03/24 02:40:58;;;;;;;17.90;13.50;;;;;;;13.45;60.60;97278.34;108996;1295;22284;-80
2023/03/24 02:43:29;;;;;;;18.00;13.40;;;;;;;13.43;60.65;97274.75;108961;1295;22274;-80
2023/03/24 02:46:22;;;;;;;15.10;12.10;;;;;;;13.41;60.60;97266.02;109010;1295;22469;-81
2023/03/24 02:49:02;;;;;;;21.20;12.70;;;;;;;13.36;60.56;97260.75;108950;1295;22345;-81
2023/03/24 02:51:39;;;;;;;19.80;12.70;;;;;;;13.31;60.86;97255.54;109020;1295;22468;-80
2023/03/24 02:54:14;;;;;;;17.00;13.50;;;;;;;13.28;60.66;97251.46;108967;1295;22224;-80
2023/03/24 02:57:21;;;;;;;15.80;12.80;;;;;;;13.22;61.00;97255.48;108946;1295;22300;-81
2023/03/24 03:00:20;;;;;;;23.40;21.20;;;;;;;13.12;61.02;97254.37;109080;1289;22198;-81
2023/03/24 03:03:20;;;;;;;18.80;15.20;;;;;;;13.05;61.11;97250.83;109616;1289;22287;-80
2023/03/24 03:05:57;;;;;;;13.70;11.90;;;;;;;12.96;60.96;97248.98;109554;1289;22207;-81
2023/03/24 03:08:31;;;;;;;16.20;13.10;;;;;;;12.86;61.27;97245.81;109405;1289;22247;-81
2023/03/24 03:11:02;;;;;;;14.00;12.40;;;;;;;12.78;61.57;97246.45;109610;1289;22115;-81
2023/03/24 03:13:39;;;;;;;14.50;12.30;;;;;;;12.70;61.49;97249.77;109627;1289;22264;-80
2023/03/24 03:16:17;;;;;;;15.70;14.10;;;;;;;12.65;61.72;97253.81;109606;1289;22405;-81
2023/03/24 03:18:50;;;;;;;27.10;24.30;;;;;;;12.55;62.43;97257.59;109611;1289;22208;-80
2023/03/24 03:21:23;;;;;;;20.60;17.00;;;;;;;12.43;62.39;97253.05;109631;1289;22259;-80
2023/03/24 03:23:52;;;;;;;16.50;14.10;;;;;;;12.41;62.79;97249.21;109636;1289;22414;-81
2023/03/24 03:26:25;;;;;;;16.90;13.30;;;;;;;12.43;62.91;97248.96;109612;1289;22799;-80
2023/03/24 03:29:00;;;;;;;17.60;12.30;;;;;;;12.46;63.04;97252.23;109600;1289;22952;-81
2023/03/24 03:31:41;;;;;;;18.40;15.10;;;;;;;12.45;63.36;97251.29;109643;1289;22214;-81
2023/03/24 03:34:27;;;;;;;14.30;12.50;;;;;;;12.35;63.54;97247.88;109625;1289;22263;-81
2023/03/24 03:37:23;;;;;;;14.80;12.30;;;;;;;12.23;63.73;97244.86;109568;1289;22560;-81
2023/03/24 03:40:04;;;;;;;15.40;13.40;;;;;;;12.10;63.85;97244.83;109619;1289;22359;-81
2023/03/24 03:42:34;;;;;;;15.40;13.80;;;;;;;12.04;64.32;97247.95;109456;1289;22199;-81
2023/03/24 03:45:02;;;;;;;17.20;11.80;;;;;;;11.97;64.42;97246.96;109637;1289;22105;-81
2023/03/24 03:47:30;;;;;;;13.90;12.30;;;;;;;11.91;65.22;97247.65;109580;1289;22264;-81
2023/03/24 03:50:03;;;;;;;17.60;10.40;;;;;;;11.88;65.31;97246.06;109627;1289;22234;-81
2023/03/24 03:52:31;;;;;;;14.90;10.10;;;;;;;11.90;65.03;97243.14;109631;1289;22304;-80
2023/03/24 03:55:01;;;;;;;24.70;12.00;;;;;;;11.93;65.41;97238.33;109599;1289;22476;-80
2023/03/24 03:57:29;;;;;;;29.50;14.80;;;;;;;11.96;65.65;97236.77;109631;1289;22271;-81
2023/03/24 04:00:12;;;;;;;28.80;16.30;;;;;;;11.96;65.73;97236.04;109595;1289;22188;-81
2023/03/24 04:03:13;;;;;;;17.50;12.90;;;;;;;11.94;66.37;97235.89;109621;1289;22294;-85
2023/03/24 04:05:52;;;;;;;17.40;14.20;;;;;;;11.84;66.33;97231.69;109626;1289;22102;-85
2023/03/24 04:08:49;;;;;;;17.90;15.60;;;;;;;11.76;67.28;97231.66;109634;1289;23118;-86
2023/03/24 04:11:42;;;;;;;19.80;15.30;;;;;;;11.66;67.98;97236.64;109619;1289;22435;-86
2023/03/24 04:14:41;;;;;;;19.40;15.00;;;;;;;11.61;68.23;97236.60;109670;1289;22283;-86
2023/03/24 04:17:44;;;;;;;18.60;16.10;;;;;;;11.57;67.59;97237.20;109473;1289;22345;-86
2023/03/24 04:20:31;;;;;;;17.50;14.20;;;;;;;11.66;67.64;97242.59;109623;1289;22123;-87
2023/03/24 04:23:13;;;;;;;17.00;13.00;;;;;;;11.71;67.62;97238.17;109603;1289;22308;-86
2023/03/24 04:25:57;;;;;;;19.00;14.70;;;;;;;11.72;68.19;97236.45;109629;1289;22396;-87
2023/03/24 04:28:42;;;;;;;14.90;11.40;;;;;;;11.66;69.70;97238.94;109657;1289;22206;-86
2023/03/24 04:31:32;;;;;;;48.30;43.60;;;;;;;11.55;70.05;97240.35;109667;1274;22211;-86
2023/03/24 04:34:28;;;;;;;18.20;15.10;;;;;;;11.50;69.76;97241.38;109335;1292;23063;-86
2023/03/24 04:37:20;;;;;;;13.50;12.10;;;;;;;11.47;69.95;97242.39;109349;1292;23340;-85
2023/03/24 04:40:09;;;;;;;13.90;10.90;;;;;;;11.46;69.89;97242.44;109283;1292;22220;-86
2023/03/24 04:42:51;;;;;;;16.40;14.80;;;;;;;11.43;71.17;97244.69;109280;1292;22200;-86
2023/03/24 04:45:24;;;;;;;17.20;15.10;;;;;;;11.33;71.24;97242.74;109371;1292;22406;-87
2023/03/24 04:48:12;;;;;;;13.90;12.40;;;;;;;11.26;71.11;97235.66;109396;1292;22391;-84
2023/03/24 04:51:11;;;;;;;15.90;13.40;;;;;;;11.29;71.43;97238.13;109188;1292;22236;-85
2023/03/24 04:53:54;;;;;;;11.40;10.20;;;;;;;11.26;72.07;97240.44;109316;1292;22943;-85
2023/03/24 04:56:29;;;;;;;14.50;12.70;;;;;;;11.24;72.28;97239.92;109332;1290;22238;-85
2023/03/24 04:59:05;;;;;;;12.90;11.10;;;;;;;11.21;72.09;97245.89;109256;1291;22256;-86
2023/03/24 05:01:36;;;;;;;14.40;10.90;;;;;;;11.17;74.02;97247.36;109214;1292;22259;-86
2023/03/24 05:04:25;;;;;;;14.60;11.60;;;;;;;11.09;75.47;97251.00;109142;1289;22321;-86
2023/03/24 05:06:54;;;;;;;20.70;18.30;;;;;;;11.03;74.82;97252.55;109651;1289;22211;-86
2023/03/24 05:09:36;;;;;;;18.90;16.70;;;;;;;11.04;74.15;97251.47;109644;1287;22302;-87
2023/03/24 05:12:04;;;;;;;17.80;16.10;;;;;;;11.20;74.77;97253.79;109611;1289;22223;-86
2023/03/24 05:14:41;;;;;;;16.00;14.20;;;;;;;11.22;75.51;97253.34;109656;1289;22122;-85
2023/03/24 05:17:10;;;;;;;13.60;12.20;;;;;;;11.20;75.90;97250.40;109493;1289;22235;-86
2023/03/24 05:19:39;;;;;;;24.80;22.50;;;;;;;11.18;75.78;97255.38;109667;1289;22172;-88
2023/03/24 05:22:07;;;;;;;16.00;14.30;;;;;;;11.16;75.69;97257.91;109629;1289;22977;-87
2023/03/24 05:24:35;;;;;;;15.90;14.30;;;;;;;11.16;75.79;97252.62;109643;1289;22354;-86
2023/03/24 05:27:03;;;;;;;45.50;41.20;;;;;;;11.19;76.03;97253.34;109648;1289;22332;-86
2023/03/24 05:29:32;;;;;;;14.10;12.60;;;;;;;11.21;76.75;97254.23;109618;1289;22394;-87
2023/03/24 05:32:00;;;;;;;13.70;12.30;;;;;;;11.22;78.29;97255.34;109612;1289;22234;-86
2023/03/24 05:34:29;;;;;;;17.90;12.80;;;;;;;11.21;78.69;97252.39;109632;1283;22233;-87
2023/03/24 05:37:11;;;;;;;13.80;12.10;;;;;;;11.20;79.06;97254.11;109574;1289;22253;-86
2023/03/24 05:39:39;;;;;;;33.60;30.30;;;;;;;11.16;78.41;97249.16;109651;1289;22347;-89
2023/03/24 05:42:22;;;;;;;18.00;16.20;;;;;;;11.20;77.89;97249.85;109598;1289;22927;-86
2023/03/24 05:44:50;;;;;;;14.90;12.10;;;;;;;11.27;78.07;97255.40;109635;1289;22990;-87
2023/03/24 05:47:26;;;;;;;12.70;11.20;;;;;;;11.36;77.79;97248.04;109654;1289;22165;-86
2023/03/24 05:49:54;;;;;;;16.40;14.80;;;;;;;11.46;78.64;97252.58;109666;1289;22251;-87
2023/03/24 05:52:22;;;;;;;16.90;15.20;;;;;;;11.50;78.20;97251.98;109504;1289;22215;-89
2023/03/24 05:54:52;;;;;;;18.50;16.70;;;;;;;11.56;78.34;97248.96;109601;1289;22768;-91
2023/03/24 05:57:23;;;;;;;18.90;17.30;;;;;;;11.62;78.47;97249.67;109623;1289;22915;-86
2023/03/24 06:00:15;;;;;;;19.20;17.50;;;;;;;11.69;78.37;97251.66;109664;1289;22209;-88
2023/03/24 06:03:06;;;;;;;17.60;15.70;;;;;;;11.77;78.37;97250.55;109541;1289;22958;-85
2023/03/24 06:05:40;;;;;;;17.60;15.90;;;;;;;11.88;78.37;97249.38;109666;1289;22206;-89
2023/03/24 06:08:08;;;;;;;18.90;17.00;;;;;;;11.99;78.51;97247.59;109629;1289;22283;-85
2023/03/24 06:10:37;;;;;;;19.20;17.40;;;;;;;12.10;78.35;97246.66;109504;1289;22910;-90
2023/03/24 06:13:07;;;;;;;21.30;19.10;;;;;;;12.19;78.43;97245.55;109668;1289;22425;-87
2023/03/24 06:15:38;;;;;;;23.60;21.20;;;;;;;12.27;78.34;97246.10;109591;1289;22210;-87
2023/03/24 06:18:29;;;;;;;26.10;23.30;;;;;;;12.34;78.29;97242.20;109680;1289;22927;-87
2023/03/24 06:20:59;;;;;;;26.30;23.70;;;;;;;12.44;78.16;97241.35;109521;1289;22224;-87
2023/03/24 06:23:29;;;;;;;24.60;22.10;;;;;;;12.53;78.51;97238.56;109622;1289;22956;-87
2023/03/24 06:26:10;;;;;;;22.20;20.00;;;;;;;12.62;78.83;97236.27;109876;1289;22220;-85
2023/03/24 06:28:50;;;;;;;21.70;19.70;;;;;;;12.68;79.14;97239.83;109847;1289;21955;-85
2023/03/24 06:31:20;;;;;;;21.00;19.10;;;;;;;12.73;79.00;97233.66;109915;1289;22354;-86
2023/03/24 06:33:51;;;;;;;22.80;20.70;;;;;;;12.78;79.03;97234.06;109934;1289;22162;-86
2023/03/24 06:36:19;;;;;;;21.30;19.30;;;;;;;12.84;78.92;97234.22;109899;1289;22239;-88
2023/03/24 06:38:47;;;;;;;25.10;22.40;;;;;;;12.93;78.97;97229.54;109722;1289;22113;-88
2023/03/24 06:41:19;;;;;;;21.10;19.20;;;;;;;13.02;78.99;97229.66;109560;1289;22163;-89
2023/03/24 06:43:49;;;;;;;23.00;20.70;;;;;;;13.12;79.17;97229.00;109642;1284;22205;-87
2023/03/24 06:46:18;;;;;;;21.50;18.90;;;;;;;13.22;79.37;97228.67;109630;1289;22215;-88
2023/03/24 06:48:47;;;;;;;22.40;20.00;;;;;;;13.33;79.62;97232.64;109640;1289;23003;-86
2023/03/24 06:51:17;;;;;;;20.20;17.70;;;;;;;13.44;79.32;97230.55;109668;1289;22186;-86
2023/03/24 06:53:45;;;;;;;21.20;18.90;;;;;;;13.55;79.58;97229.08;109575;1289;22422;-86
2023/03/24 06:56:16;;;;;;;21.90;18.50;;;;;;;13.68;79.50;97232.29;109619;1289;22887;-86
2023/03/24 06:58:48;;;;;;;20.60;17.80;;;;;;;13.85;79.47;97234.17;109585;1289;22355;-88
2023/03/24 07:01:25;;;;;;;18.30;16.50;;;;;;;14.02;79.58;97235.52;109671;1289;22298;-89
2023/03/24 07:03:59;;;;;;;17.80;16.00;;;;;;;14.13;79.47;97229.23;109657;1289;22168;-88
2023/03/24 07:06:57;;;;;;;23.30;16.00;;;;;;;14.24;79.31;97231.83;109410;1289;23025;-88
2023/03/24 07:09:47;;;;;;;17.60;15.80;;;;;;;14.35;79.23;97232.02;109590;1289;22209;-89
2023/03/24 07:12:15;;;;;;;16.40;14.60;;;;;;;14.44;79.07;97229.36;109663;1289;22980;-86
2023/03/24 07:14:43;;;;;;;16.10;14.50;;;;;;;14.49;78.73;97227.66;109655;1289;23074;-87
2023/03/24 07:17:11;;;;;;;16.20;14.50;;;;;;;14.57;78.59;97229.63;109658;1289;22310;-86
2023/03/24 07:19:58;;;;;;;16.10;14.50;;;;;;;14.69;78.61;97229.77;109653;1289;22269;-86
2023/03/24 07:22:41;;;;;;;20.30;16.60;;;;;;;14.83;78.55;97229.46;109683;1289;22243;-88
2023/03/24 07:25:39;;;;;;;15.60;14.20;;;;;;;14.90;78.26;97225.17;109526;1289;22121;-87
2023/03/24 07:28:30;;;;;;;15.10;13.60;;;;;;;14.95;78.16;97221.70;109685;1289;22175;-88
2023/03/24 07:31:02;;;;;;;14.00;12.60;;;;;;;15.00;78.04;97221.98;109487;1289;22289;-89
2023/03/24 07:33:31;;;;;;;13.00;11.80;;;;;;;15.07;77.83;97219.45;109501;1289;22428;-86
2023/03/24 07:35:59;;;;;;;14.10;12.70;;;;;;;15.14;77.62;97216.09;109710;1289;22247;-87
2023/03/24 07:38:27;;;;;;;12.70;11.50;;;;;;;15.18;77.41;97214.89;109739;1275;22136;-87
2023/03/24 07:41:00;;;;;;;12.60;11.10;;;;;;;15.22;77.07;97209.88;109664;1289;22223;-86
2023/03/24 07:43:30;;;;;;;15.20;12.20;;;;;;;15.28;76.91;97203.15;109811;1289;22111;-86
2023/03/24 07:46:18;;;;;;;13.60;11.60;;;;;;;15.39;76.27;97203.14;109693;1289;22172;-86
2023/03/24 07:48:46;;;;;;;13.30;11.90;;;;;;;15.47;75.66;97203.55;109636;1289;22207;-86
2023/03/24 07:51:18;;;;;;;15.90;11.90;;;;;;;15.55;75.11;97199.20;109682;1289;22223;-87
2023/03/24 07:53:51;;;;;;;12.80;11.60;;;;;;;15.62;73.43;97197.78;109748;1284;21914;-85
2023/03/24 07:56:35;;;;;;;;;;;;;;;15.64;73.62;97197.66;109702;1289;23067;-87
2023/03/24 07:59:04;;;;;;;11.70;10.50;;;;;;;15.68;73.22;97193.64;109717;1287;23004;-88
2023/03/24 08:01:51;;;;;;;15.50;11.70;;;;;;;15.77;72.74;97199.80;109700;1289;22149;-87
2023/03/24 08:04:52;;;;;;;13.30;10.70;;;;;;;15.83;72.37;97198.08;109353;1289;22813;-88
2023/03/24 08:07:52;;;;;;;12.80;11.20;;;;;;;15.86;71.55;97198.02;109671;1289;22397;-85
2023/03/24 08:10:23;;;;;;;11.80;10.20;;;;;;;15.87;71.10;97192.30;109595;1289;22434;-88
2023/03/24 08:12:51;;;;;;;13.80;11.50;;;;;;;15.95;71.17;97188.45;109658;1289;22150;-87
2023/03/24 08:15:19;;;;;;;11.80;10.50;;;;;;;16.03;70.80;97183.84;109681;1289;22412;-87
2023/03/24 08:17:48;;;;;;;12.20;10.20;;;;;;;16.10;70.14;97184.08;109683;1289;22344;-87
2023/03/24 08:20:20;;;;;;;11.30;9.90;;;;;;;16.20;69.46;97186.09;109682;1283;22162;-87
2023/03/24 08:22:48;;;;;;;12.90;10.60;;;;;;;16.26;69.26;97184.37;109602;1289;22221;-87
2023/03/24 08:25:18;;;;;;;11.40;10.20;;;;;;;16.38;69.41;97176.88;109673;1289;22792;-87
2023/03/24 08:27:46;;;;;;;11.70;10.30;;;;;;;16.51;68.45;97173.66;109600;1289;22260;-87
2023/03/24 08:30:20;;;;;;;13.20;11.00;;;;;;;16.57;67.94;97172.02;109597;1289;22270;-85
2023/03/24 08:32:50;;;;;;;11.40;10.10;;;;;;;16.63;68.12;97167.30;109589;1289;22277;-87
2023/03/24 08:35:22;;;;;;;11.60;9.80;;;;;;;16.68;67.20;97162.15;109583;1289;22383;-87
2023/03/24 08:37:51;;;;;;;11.70;9.70;;;;;;;16.68;66.88;97161.54;109695;1289;22112;-87
2023/03/24 08:40:22;;;;;;;11.90;9.70;;;;;;;16.71;66.94;97155.76;109663;1289;22277;-87
2023/03/24 08:42:53;;;;;;;12.70;10.60;;;;;;;16.74;66.51;97154.66;109645;1289;22462;-86
2023/03/24 08:45:26;;;;;;;14.80;12.20;;;;;;;16.78;65.89;97152.91;109670;1289;22108;-87
2023/03/24 08:47:54;;;;;;;12.90;10.60;;;;;;;16.79;65.67;97147.58;109685;1289;22286;-87
2023/03/24 08:50:26;;;;;;;18.60;13.60;;;;;;;16.80;64.98;97142.69;109592;1289;22861;-87
2023/03/24 08:52:56;;;;;;;20.50;13.30;;;;;;;16.83;64.84;97143.73;109501;1289;22235;-88
2023/03/24 08:55:25;;;;;;;16.20;12.80;;;;;;;16.88;64.99;97146.41;109599;1289;22916;-87
2023/03/24 08:57:53;;;;;;;16.00;12.60;;;;;;;16.95;65.51;97140.04;109577;1289;22437;-87
2023/03/24 09:00:21;;;;;;;12.70;10.00;;;;;;;17.09;65.21;97139.91;109709;1289;22289;-86
2023/03/24 09:02:52;;;;;;;15.80;11.10;;;;;;;17.20;65.45;97131.64;109594;1289;22519;-87
2023/03/24 09:05:22;;;;;;;13.10;10.20;;;;;;;17.33;64.60;97129.70;109607;1289;22381;-86
2023/03/24 09:08:08;;;;;;;14.20;10.10;;;;;;;17.40;64.27;97125.54;109676;1289;22224;-87
2023/03/24 09:10:36;;;;;;;12.00;10.70;;;;;;;17.47;63.89;97127.46;109504;1289;22871;-87
2023/03/24 09:13:08;;;;;;;17.20;12.10;;;;;;;17.52;63.52;97124.42;109675;1284;22184;-87
2023/03/24 09:15:37;;;;;;;16.10;14.30;;;;;;;17.56;63.94;97119.82;109688;1289;22103;-86
2023/03/24 09:18:05;;;;;;;12.90;11.70;;;;;;;17.63;63.62;97119.32;109682;1289;22236;-86
2023/03/24 09:20:33;;;;;;;14.20;10.30;;;;;;;17.71;63.37;97118.66;109696;1289;22827;-87
2023/03/24 09:23:01;;;;;;;12.40;11.20;;;;;;;17.80;62.96;97113.64;109527;1289;22103;-87
2023/03/24 09:25:30;;;;;;;11.50;10.40;;;;;;;17.94;62.70;97107.63;109686;1289;23194;-87
2023/03/24 09:27:58;;;;;;;14.30;10.40;;;;;;;18.12;62.69;97107.03;109687;1289;22930;-87
2023/03/24 09:30:26;;;;;;;13.40;10.30;;;;;;;18.24;62.19;97103.16;109679;1289;22388;-87
2023/03/24 09:32:58;;;;;;;11.00;9.90;;;;;;;18.37;61.78;97098.19;109586;1289;22262;-87
2023/03/24 09:35:26;;;;;;;12.50;10.50;;;;;;;18.55;62.33;97085.16;109681;1289;22765;-87
2023/03/24 09:37:55;;;;;;;11.80;10.70;;;;;;;18.76;61.76;97082.08;109692;1289;22265;-86
2023/03/24 09:40:32;;;;;;;12.10;8.90;;;;;;;18.90;61.22;97083.20;109664;1289;22255;-87
2023/03/24 09:43:07;;;;;;;10.70;9.70;;;;;;;19.04;60.90;97084.90;109581;1289;22204;-86
2023/03/24 09:45:51;;;;;;;10.50;8.60;;;;;;;19.17;60.92;97076.78;109667;1289;22167;-86
2023/03/24 09:48:50;;;;;;;10.80;9.00;;;;;;;19.27;60.39;97074.52;109562;1289;22163;-87
2023/03/24 09:51:23;;;;;;;11.60;10.40;;;;;;;19.39;59.81;97075.52;109595;1289;22311;-87
2023/03/24 09:53:50;;;;;;;15.20;11.20;;;;;;;19.49;60.19;97074.58;109671;1289;22288;-87
2023/03/24 09:56:21;;;;;;;10.30;9.10;;;;;;;19.60;59.79;97074.36;109663;1289;22204;-86
2023/03/24 09:59:02;;;;;;;13.00;10.20;;;;;;;19.62;59.42;97066.19;109556;1289;22106;-86
2023/03/24 10:01:30;;;;;;;11.40;9.10;;;;;;;19.67;58.50;97065.77;109570;1289;22284;-86
2023/03/24 10:03:59;;;;;;;11.60;8.70;;;;;;;19.76;58.47;97058.58;109577;1289;22122;-87
2023/03/24 10:06:38;;;;;;;12.40;8.60;;;;;;;19.87;58.40;97055.22;109593;1289;22248;-85
2023/03/24 10:09:28;;;;;;;8.90;7.90;;;;;;;19.90;56.37;97053.30;109682;1289;22375;-87
2023/03/24 10:12:34;;;;;;;9.00;8.10;;;;;;;19.93;56.95;97043.94;109708;1289;22200;-86
2023/03/24 10:15:21;;;;;;;11.50;8.90;;;;;;;20.08;57.51;97036.37;109706;1289;22112;-87
2023/03/24 10:18:20;;;;;;;9.40;7.40;;;;;;;20.21;56.74;97034.96;109681;1289;22372;-87
2023/03/24 10:20:51;;;;;;;7.10;6.40;;;;;;;20.28;55.28;97034.69;109684;1289;22287;-87
2023/03/24 10:23:44;;;;;;;9.80;7.20;;;;;;;20.36;54.41;97030.41;109676;1289;22214;-87
2023/03/24 10:26:24;;;;;;;11.10;8.20;;;;;;;20.41;53.17;97024.49;109578;1289;22254;-87
2023/03/24 10:29:26;;;;;;;12.60;8.70;;;;;;;20.52;50.54;97027.44;109692;1289;22425;-86
2023/03/24 10:32:11;;;;;;;10.90;7.60;;;;;;;20.42;47.69;97023.95;109681;1289;22239;-86
2023/03/24 10:34:43;;;;;;;11.00;8.20;;;;;;;20.34;48.94;97020.33;109534;1289;22372;-86
2023/03/24 10:37:13;;;;;;;12.70;8.00;;;;;;;20.44;49.48;97022.63;109533;1289;22234;-86
2023/03/24 10:39:42;;;;;;;10.90;8.70;;;;;;;20.51;48.06;97024.46;109592;1289;22334;-87
2023/03/24 10:42:20;;;;;;;12.00;9.00;;;;;;;20.41;47.31;97028.09;109687;1289;22863;-87
2023/03/24 10:44:51;;;;;;;11.40;9.00;;;;;;;20.28;47.62;97031.00;109715;1277;22215;-87
2023/03/24 10:47:28;;;;;;;18.30;9.10;;;;;;;20.18;46.79;97031.89;109699;1289;22250;-87
2023/03/24 10:50:04;;;;;;;12.10;9.00;;;;;;;20.11;47.14;97029.90;109683;1289;22213;-87
2023/03/24 10:52:47;;;;;;;12.00;9.80;;;;;;;20.07;47.72;97024.64;109682;1289;22932;-87
2023/03/24 10:55:18;;;;;;;11.90;9.60;;;;;;;20.18;47.83;97024.77;109716;1289;22704;-86
2023/03/24 10:57:49;;;;;;;10.60;9.60;;;;;;;20.34;48.14;97020.01;109736;1289;22260;-85
2023/03/24 11:00:31;;;;;;;9.80;8.80;;;;;;;20.49;47.24;97020.63;109788;1289;22261;-84
2023/03/24 11:03:23;;;;;;;11.00;9.10;;;;;;;20.51;46.35;97013.77;109744;1289;22948;-87
2023/03/24 11:06:00;;;;;;;9.90;8.50;;;;;;;20.50;46.09;97015.00;109540;1289;22088;-86
2023/03/24 11:08:38;;;;;;;11.40;9.60;;;;;;;20.46;46.24;97009.13;109580;1279;22198;-86
2023/03/24 11:11:28;;;;;;;12.00;8.80;;;;;;;20.53;45.70;97005.71;109665;1289;23069;-86
2023/03/24 11:14:00;;;;;;;11.80;8.50;;;;;;;20.56;44.70;97005.90;109692;1289;22239;-85
2023/03/24 11:16:34;;;;;;;11.40;7.90;;;;;;;20.57;44.48;96998.70;109707;1289;22261;-87
2023/03/24 11:19:03;;;;;;;;;;;;;;;20.64;44.62;96994.52;109704;1289;22406;-88
2023/03/24 11:21:35;;;;;;;10.30;8.70;;;;;;;20.72;44.17;96994.68;109685;1289;22117;-89
2023/03/24 11:24:10;;;;;;;10.80;7.50;;;;;;;20.76;43.75;96991.09;109693;1289;22212;-89
2023/03/24 11:26:43;;;;;;;9.50;6.70;;;;;;;20.78;43.17;96989.45;109680;1289;22152;-86
2023/03/24 11:29:17;;;;;;;11.50;7.60;;;;;;;20.70;42.55;96978.02;109555;1289;22248;-86
2023/03/24 11:31:57;;;;;;;11.50;7.80;;;;;;;20.67;43.00;96973.16;109560;1289;22155;-87
2023/03/24 11:34:33;;;;;;;13.20;7.30;;;;;;;20.71;42.10;96977.39;109674;1289;22880;-87
2023/03/24 11:37:05;;;;;;;11.80;7.80;;;;;;;20.63;41.74;96980.50;109688;1289;22217;-88
2023/03/24 11:39:34;;;;;;;12.10;7.60;;;;;;;20.49;42.40;96969.48;109682;1289;22903;-87
2023/03/24 11:42:11;;;;;;;11.10;7.20;;;;;;;20.45;42.29;96969.77;109555;1287;22150;-87
2023/03/24 11:44:52;;;;;;;9.20;7.40;;;;;;;20.38;41.91;96966.48;109670;1289;22215;-87
2023/03/24 11:47:31;;;;;;;9.50;7.00;;;;;;;20.30;42.01;96962.94;109681;1289;22190;-87
2023/03/24 11:50:15;;;;;;;10.80;6.40;;;;;;;20.27;41.73;96964.88;109496;1289;22227;-88
2023/03/24 11:52:57;;;;;;;10.30;6.80;;;;;;;20.28;41.67;96961.99;109682;1289;22604;-86